Time;durP1;ratioP1;P1;durP2;ratioP2;P2;SDS_P1;SDS_P2;PMS_P1;PMS_P2;Temp;Humidity;BMP_temperature;BMP_pressure;BME280_temperature;BME280_humidity;BME280_pressure;Samples;Min_cycle;Max_cycle;Signal;HPM_P1;HPM_P2
2021/10/01 00:02:18;;;;;;;6.93;1.92;;;;;;;19.79;58.65;100088.72;4991703;28;20124;-60
2021/10/01 00:04:43;;;;;;;5.65;2.00;;;;;;;19.79;58.86;100088.72;5009031;28;20490;-60
2021/10/01 00:07:11;;;;;;;7.30;2.20;;;;;;;19.78;58.78;100087.09;5007218;28;20037;-60
2021/10/01 00:09:40;;;;;;;7.13;2.13;;;;;;;19.78;58.95;100081.75;5008991;28;20034;-60
2021/10/01 00:12:07;;;;;;;6.47;2.40;;;;;;;19.78;58.75;100071.94;5006854;28;20109;-61
2021/10/01 00:14:33;;;;;;;6.57;2.22;;;;;;;19.78;59.01;100071.94;4989011;28;20050;-61
2021/10/01 00:16:59;;;;;;;7.60;2.00;;;;;;;19.78;58.96;100066.63;4992398;28;20543;-61
2021/10/01 00:19:24;;;;;;;5.78;2.00;;;;;;;19.77;58.53;100059.66;4992149;28;20141;-60
2021/10/01 00:21:50;;;;;;;6.22;1.80;;;;;;;19.78;58.41;100052.50;5008402;28;20121;-61
2021/10/01 00:24:16;;;;;;;7.13;1.98;;;;;;;19.77;58.78;100038.38;5010444;28;20348;-60
2021/10/01 00:26:42;;;;;;;5.43;2.10;;;;;;;19.77;58.89;100038.38;5011793;28;20104;-61
2021/10/01 00:29:09;;;;;;;6.32;1.55;;;;;;;19.77;58.86;100043.69;5010309;28;20088;-61
2021/10/01 00:31:34;;;;;;;7.05;2.30;;;;;;;19.78;58.73;100047.16;4998424;28;20041;-60
2021/10/01 00:34:01;;;;;;;4.68;1.92;;;;;;;19.78;58.62;100033.88;4985784;28;20034;-60
2021/10/01 00:36:29;;;;;;;5.72;1.80;;;;;;;19.78;58.46;100044.50;5010676;28;20821;-60
2021/10/01 00:38:57;;;;;;;6.55;2.08;;;;;;;19.77;58.83;100033.06;5011927;28;20034;-60
2021/10/01 00:41:22;;;;;;;7.78;1.88;;;;;;;19.77;58.40;100035.72;5011922;28;20053;-61
2021/10/01 00:43:48;;;;;;;8.05;1.90;;;;;;;19.76;58.62;100022.63;5002228;28;20034;-61
2021/10/01 00:46:13;;;;;;;6.68;1.75;;;;;;;19.75;58.26;100024.47;4992220;28;20030;-61
2021/10/01 00:48:39;;;;;;;7.22;2.13;;;;;;;19.74;58.60;100034.31;4992180;28;20039;-60
2021/10/01 00:51:06;;;;;;;6.43;1.98;;;;;;;19.75;58.50;100029.78;4992263;28;20041;-60
2021/10/01 00:53:32;;;;;;;7.47;2.35;;;;;;;19.75;58.51;100016.50;4997363;28;20033;-60
2021/10/01 00:55:57;;;;;;;5.57;1.92;;;;;;;19.75;58.21;100016.50;5018771;28;20053;-60
2021/10/01 00:58:23;;;;;;;7.07;1.98;;;;;;;19.74;58.26;100002.38;5030329;28;20441;-60
2021/10/01 01:01:09;;;;;;;6.90;1.88;;;;;;;19.74;58.56;100013.00;5011050;28;20033;-60
2021/10/01 01:03:43;;;;;;;6.00;1.92;;;;;;;19.73;58.39;100016.72;4999175;28;20042;-61
2021/10/01 01:06:33;;;;;;;6.28;1.70;;;;;;;19.72;58.36;100020.41;5013248;28;20049;-64
2021/10/01 01:09:13;;;;;;;7.32;2.08;;;;;;;19.72;58.23;100023.06;5013246;28;20041;-61
2021/10/01 01:12:09;;;;;;;5.55;1.75;;;;;;;19.68;58.23;100024.50;5030630;28;20036;-60
2021/10/01 01:14:35;;;;;;;5.65;1.88;;;;;;;19.73;58.41;100011.38;5014682;28;20514;-60
2021/10/01 01:17:04;;;;;;;4.97;1.90;;;;;;;19.74;58.25;100004.22;4993325;28;20030;-60
2021/10/01 01:19:48;;;;;;;8.18;2.10;;;;;;;19.71;58.61;99996.66;5010607;28;20415;-61
2021/10/01 01:22:30;;;;;;;5.47;2.10;;;;;;;19.70;58.40;100003.00;5010795;28;20042;-62
2021/10/01 01:25:40;;;;;;;4.75;1.50;;;;;;;19.67;58.42;100004.25;5027136;28;20135;-62
2021/10/01 01:28:11;;;;;;;7.03;2.53;;;;;;;19.70;58.56;99993.16;4992701;28;20091;-60
2021/10/01 01:30:45;;;;;;;5.53;1.58;;;;;;;19.71;58.21;99992.13;5030062;28;20657;-60
2021/10/01 01:33:21;;;;;;;7.78;2.13;;;;;;;19.72;58.31;99987.63;5027974;28;20109;-63
2021/10/01 01:35:50;;;;;;;7.05;2.30;;;;;;;19.71;58.02;99978.81;5010717;28;20034;-60
2021/10/01 01:38:21;;;;;;;8.23;1.58;;;;;;;19.71;58.30;99986.81;4992575;28;20459;-60
2021/10/01 01:40:54;;;;;;;5.28;1.73;;;;;;;19.70;58.14;99987.84;5010289;28;20456;-61
2021/10/01 01:43:20;;;;;;;3.75;1.52;;;;;;;19.71;58.26;99981.50;5014587;28;20514;-61
2021/10/01 01:45:46;;;;;;;7.60;1.92;;;;;;;19.72;58.14;99991.13;5011791;28;20132;-60
2021/10/01 01:48:13;;;;;;;4.53;1.80;;;;;;;19.72;58.10;99988.47;5029724;28;20044;-64
2021/10/01 01:50:39;;;;;;;4.57;1.70;;;;;;;19.72;58.22;99991.13;5012567;28;20041;-60
2021/10/01 01:53:08;;;;;;;4.93;2.10;;;;;;;19.73;58.18;99986.63;4994899;28;20037;-61
2021/10/01 01:55:35;;;;;;;5.13;1.98;;;;;;;19.73;58.05;99994.59;5029090;28;20055;-61
2021/10/01 01:58:01;;;;;;;5.10;1.63;;;;;;;19.71;58.22;99989.47;5011960;28;20394;-60
2021/10/01 02:00:28;;;;;;;5.38;1.80;;;;;;;19.72;58.14;99987.63;5011732;28;20045;-60
2021/10/01 02:02:55;;;;;;;6.32;2.13;;;;;;;19.73;58.03;99973.31;5029385;28;20033;-61
2021/10/01 02:05:21;;;;;;;4.78;1.63;;;;;;;19.72;58.13;99972.50;4991779;28;20042;-60
2021/10/01 02:07:48;;;;;;;7.40;2.00;;;;;;;19.72;57.90;99969.84;5009664;28;20152;-60
2021/10/01 02:10:15;;;;;;;5.90;1.52;;;;;;;19.72;58.31;99977.81;4992325;28;20503;-63
2021/10/01 02:12:46;;;;;;;5.60;1.70;;;;;;;19.72;57.93;99967.19;5009824;28;20107;-60
2021/10/01 02:15:12;;;;;;;4.40;1.83;;;;;;;19.72;58.27;99971.66;4996626;28;20041;-60
2021/10/01 02:17:42;;;;;;;6.30;1.55;;;;;;;19.72;58.12;99971.66;5028947;28;20191;-60
2021/10/01 02:20:09;;;;;;;4.18;1.63;;;;;;;19.72;57.93;99967.19;5029494;28;20037;-60
2021/10/01 02:22:35;;;;;;;6.30;1.73;;;;;;;19.72;57.98;99964.53;5029275;28;20059;-60
2021/10/01 02:25:01;;;;;;;4.28;1.70;;;;;;;19.72;57.86;99961.03;5027958;28;20033;-60
2021/10/01 02:27:48;;;;;;;5.63;1.45;;;;;;;19.66;58.09;99957.38;5009248;28;20752;-60
2021/10/01 02:30:17;;;;;;;6.55;1.70;;;;;;;19.70;57.90;99947.94;5009334;28;20117;-62
2021/10/01 02:32:50;;;;;;;6.97;1.85;;;;;;;19.69;58.04;99935.66;5009711;28;20041;-61
2021/10/01 02:35:16;;;;;;;4.43;1.80;;;;;;;19.70;58.23;99931.97;5009815;28;20143;-65
2021/10/01 02:37:42;;;;;;;4.97;1.48;;;;;;;19.71;57.94;99946.09;5013208;28;20136;-61
2021/10/01 02:40:08;;;;;;;4.95;1.50;;;;;;;19.70;57.97;99947.13;5029373;28;20036;-60
2021/10/01 02:42:35;;;;;;;6.07;1.73;;;;;;;19.70;58.00;99931.97;5028820;28;20041;-60
2021/10/01 02:45:05;;;;;;;5.95;1.50;;;;;;;19.68;57.99;99927.91;5028946;28;20051;-60
2021/10/01 02:47:33;;;;;;;5.15;1.67;;;;;;;19.70;57.81;99923.19;5011076;28;20068;-60
2021/10/01 02:50:00;;;;;;;4.80;1.60;;;;;;;19.70;58.07;99923.19;5028118;28;20094;-60
2021/10/01 02:52:37;;;;;;;4.85;1.60;;;;;;;19.67;57.83;99926.28;5029165;28;20025;-60
2021/10/01 02:55:06;;;;;;;6.07;1.50;;;;;;;19.69;57.61;99926.88;5029377;28;20037;-60
2021/10/01 02:58:13;;;;;;;4.57;1.75;;;;;;;19.65;58.13;99925.69;5005365;28;20156;-61
2021/10/01 03:00:39;;;;;;;6.10;1.92;;;;;;;19.69;57.60;99922.34;5005970;28;20045;-61
2021/10/01 03:03:21;;;;;;;5.18;1.80;;;;;;;19.67;57.86;99913.78;5024529;28;20029;-60
2021/10/01 03:05:48;;;;;;;5.40;1.50;;;;;;;19.69;58.03;99919.69;5029225;28;20035;-60
2021/10/01 03:08:16;;;;;;;4.57;1.50;;;;;;;19.68;57.47;99923.41;5011321;28;20041;-62
2021/10/01 03:10:43;;;;;;;5.28;1.58;;;;;;;19.68;57.90;99934.03;5029237;28;20124;-60
2021/10/01 03:13:10;;;;;;;6.32;1.67;;;;;;;19.68;57.79;99944.69;5028554;28;20034;-60
2021/10/01 03:15:37;;;;;;;6.18;1.58;;;;;;;19.69;57.73;99953.47;5009748;28;20113;-60
2021/10/01 03:18:03;;;;;;;6.60;2.15;;;;;;;19.69;57.85;99954.28;4991589;28;20045;-61
2021/10/01 03:20:29;;;;;;;5.60;1.65;;;;;;;19.69;57.76;99945.50;5009006;28;20042;-60
2021/10/01 03:22:56;;;;;;;4.25;1.73;;;;;;;19.69;57.96;99943.66;5009640;28;20124;-60
2021/10/01 03:25:22;;;;;;;4.60;1.60;;;;;;;19.68;57.44;99934.03;5022272;28;20044;-60
2021/10/01 03:27:48;;;;;;;7.38;1.75;;;;;;;19.68;57.83;99936.69;5028672;28;20389;-60
2021/10/01 03:30:14;;;;;;;6.82;1.75;;;;;;;19.67;57.62;99929.75;4994607;28;20446;-61
2021/10/01 03:32:39;;;;;;;4.60;1.50;;;;;;;19.68;57.37;99923.41;5028424;28;20072;-60
2021/10/01 03:35:06;;;;;;;4.38;1.50;;;;;;;19.68;57.82;99919.91;5009897;28;20446;-60
2021/10/01 03:37:32;;;;;;;5.88;1.60;;;;;;;19.68;57.74;99927.91;5008569;28;20788;-60
2021/10/01 03:40:01;;;;;;;3.83;1.25;;;;;;;19.68;57.42;99936.69;5009442;28;20040;-60
2021/10/01 03:42:27;;;;;;;5.07;1.67;;;;;;;19.67;57.82;99932.41;5008100;28;20042;-60
2021/10/01 03:44:53;;;;;;;5.78;1.67;;;;;;;19.67;57.44;99913.78;5009240;28;20056;-61
2021/10/01 03:47:19;;;;;;;5.03;1.38;;;;;;;19.68;57.47;99901.28;5009107;28;20042;-64
2021/10/01 03:49:45;;;;;;;3.65;1.48;;;;;;;19.66;57.58;99909.50;5009126;28;20128;-60
2021/10/01 03:52:12;;;;;;;4.25;1.60;;;;;;;19.67;57.60;99919.09;4978842;28;20542;-60
2021/10/01 03:54:40;;;;;;;3.67;1.15;;;;;;;19.67;57.68;99911.13;5012237;28;20038;-61
2021/10/01 03:57:05;;;;;;;4.97;1.30;;;;;;;19.67;57.45;99913.78;5010646;28;20049;-60
2021/10/01 03:59:31;;;;;;;5.05;1.75;;;;;;;19.66;57.54;99906.84;5031837;28;20487;-60
2021/10/01 04:01:56;;;;;;;4.10;1.48;;;;;;;19.66;57.64;99903.38;5014876;28;20060;-60
2021/10/01 04:04:22;;;;;;;3.72;1.55;;;;;;;19.66;57.62;99920.13;5032242;28;20056;-61
2021/10/01 04:06:48;;;;;;;4.43;1.27;;;;;;;19.65;57.44;99918.53;5014097;28;20041;-61
2021/10/01 04:09:13;;;;;;;4.72;1.70;;;;;;;19.65;57.65;99912.38;5012515;28;20042;-61
2021/10/01 04:11:39;;;;;;;4.88;1.58;;;;;;;19.65;57.28;99918.53;4994205;28;20713;-60
2021/10/01 04:14:06;;;;;;;5.50;1.55;;;;;;;19.64;57.49;99927.53;5011960;28;20033;-60
2021/10/01 04:16:32;;;;;;;5.10;1.45;;;;;;;19.65;57.34;99923.84;5012051;28;20069;-60
2021/10/01 04:18:57;;;;;;;4.75;1.42;;;;;;;19.64;57.14;99937.34;5012148;28;20053;-61
2021/10/01 04:21:23;;;;;;;4.03;1.08;;;;;;;19.65;57.38;99949.63;5029805;28;20045;-60
2021/10/01 04:23:48;;;;;;;4.43;1.30;;;;;;;19.63;57.22;99952.50;5014048;28;20070;-61
2021/10/01 04:26:14;;;;;;;7.82;2.03;;;;;;;19.63;56.95;99954.34;5014214;28;20069;-61
2021/10/01 04:28:39;;;;;;;5.50;1.30;;;;;;;19.62;56.88;99961.53;5030980;28;20797;-60
2021/10/01 04:31:05;;;;;;;5.70;1.35;;;;;;;19.62;57.23;99960.72;5031021;28;20033;-60
2021/10/01 04:33:34;;;;;;;3.70;1.33;;;;;;;19.62;57.28;99971.34;5011429;28;20030;-60
2021/10/01 04:36:00;;;;;;;5.57;1.33;;;;;;;19.62;56.94;99977.50;4994429;28;20125;-60
2021/10/01 04:38:26;;;;;;;4.22;1.20;;;;;;;19.62;56.97;99982.00;4994047;28;20119;-60
2021/10/01 04:40:52;;;;;;;3.58;1.25;;;;;;;19.62;57.18;99995.31;5011921;28;20463;-60
2021/10/01 04:43:18;;;;;;;4.13;1.17;;;;;;;19.62;56.70;100000.63;5015554;28;20558;-60
2021/10/01 04:45:44;;;;;;;5.22;1.42;;;;;;;19.61;56.68;100013.09;5031375;28;20030;-61
2021/10/01 04:48:09;;;;;;;4.43;1.25;;;;;;;19.61;57.04;100015.78;5030999;28;20086;-60
2021/10/01 04:50:36;;;;;;;4.32;1.10;;;;;;;19.61;56.76;100004.31;5013171;28;20033;-60
2021/10/01 04:53:03;;;;;;;3.83;1.10;;;;;;;19.61;56.76;100015.78;5031286;28;20022;-60
2021/10/01 04:55:32;;;;;;;3.08;1.10;;;;;;;19.60;56.63;100030.09;4992869;28;20049;-60
2021/10/01 04:57:57;;;;;;;4.45;1.10;;;;;;;19.59;56.70;100033.81;5011159;28;20492;-60
2021/10/01 05:00:23;;;;;;;3.35;1.08;;;;;;;19.60;56.53;100043.41;5010644;28;20029;-60
2021/10/01 05:02:48;;;;;;;5.05;1.20;;;;;;;19.60;56.91;100050.56;5013649;28;20497;-60
2021/10/01 05:05:14;;;;;;;4.10;1.42;;;;;;;19.60;56.72;100050.56;5012910;28;20044;-61
2021/10/01 05:07:40;;;;;;;6.50;1.35;;;;;;;19.60;56.77;100053.22;5025793;28;20034;-60
2021/10/01 05:10:06;;;;;;;3.33;1.00;;;;;;;19.59;56.89;100059.59;5011214;28;20041;-60
2021/10/01 05:12:32;;;;;;;3.83;1.05;;;;;;;19.60;56.90;100071.84;5010662;28;20056;-60
2021/10/01 05:14:57;;;;;;;4.22;1.00;;;;;;;19.59;56.59;100081.69;4976972;28;20152;-61
2021/10/01 05:17:23;;;;;;;4.40;1.25;;;;;;;19.60;56.63;100103.78;5010775;28;20053;-64
2021/10/01 05:19:49;;;;;;;4.70;1.20;;;;;;;19.59;56.65;100104.81;5017262;28;20124;-60
2021/10/01 05:22:16;;;;;;;2.78;1.15;;;;;;;19.59;56.79;100112.78;5012724;28;20041;-61
2021/10/01 05:24:42;;;;;;;2.33;1.00;;;;;;;19.59;56.56;100121.59;4993253;28;20075;-60
2021/10/01 05:27:08;;;;;;;3.03;1.17;;;;;;;19.59;56.69;100128.75;5010737;28;20073;-61
2021/10/01 05:29:33;;;;;;;3.55;1.08;;;;;;;19.59;56.69;100140.22;5010547;28;20073;-61
2021/10/01 05:31:59;;;;;;;2.83;1.17;;;;;;;19.59;56.89;100144.72;5010741;28;20496;-60
2021/10/01 05:34:25;;;;;;;3.55;1.02;;;;;;;19.59;56.81;100150.84;5027655;28;20037;-61
2021/10/01 05:36:51;;;;;;;3.63;1.00;;;;;;;19.59;56.56;100153.53;5030655;28;20082;-60
2021/10/01 05:39:17;;;;;;;4.28;1.00;;;;;;;19.59;56.71;100163.34;5030563;28;20045;-60
2021/10/01 05:41:42;;;;;;;4.50;1.27;;;;;;;19.58;56.78;100162.53;5015174;28;20475;-62
2021/10/01 05:44:08;;;;;;;4.75;1.20;;;;;;;19.58;56.49;100164.38;4992357;28;20052;-62
2021/10/01 05:46:37;;;;;;;4.10;1.13;;;;;;;19.58;56.81;100172.34;5009334;28;20087;-63
2021/10/01 05:49:03;;;;;;;3.05;0.88;;;;;;;19.58;56.83;100162.53;5012949;28;20041;-62
2021/10/01 05:51:30;;;;;;;3.40;1.33;;;;;;;19.57;56.61;100166.22;5030001;28;20049;-60
2021/10/01 05:56:33;;;;;;;4.05;0.95;;;;;;;19.60;56.58;100176.44;4995090;28;20057;-61
2021/10/01 05:58:58;;;;;;;4.07;0.98;;;;;;;19.59;56.86;100196.09;5028842;28;20045;-61
2021/10/01 06:01:24;;;;;;;3.00;1.08;;;;;;;19.60;56.63;100199.56;5028311;28;20044;-65
2021/10/01 06:03:51;;;;;;;3.92;1.00;;;;;;;19.60;56.97;100189.75;5011452;28;20026;-61
2021/10/01 06:06:17;;;;;;;3.28;0.90;;;;;;;19.60;56.57;100197.72;5029952;28;20056;-61
2021/10/01 06:08:42;;;;;;;2.42;0.90;;;;;;;19.61;56.73;100201.19;5007900;28;20057;-61
2021/10/01 06:11:08;;;;;;;2.28;0.80;;;;;;;19.59;56.85;100201.41;4992551;28;20046;-61
2021/10/01 06:13:36;;;;;;;2.88;1.00;;;;;;;19.59;56.81;100208.56;4990419;28;20085;-62
2021/10/01 06:16:01;;;;;;;2.75;0.90;;;;;;;19.59;56.33;100212.06;5010495;28;20153;-60
2021/10/01 06:18:27;;;;;;;3.22;0.90;;;;;;;19.59;56.51;100203.25;5009730;28;20038;-61
2021/10/01 06:20:52;;;;;;;3.17;1.00;;;;;;;19.58;56.86;100217.59;4998260;28;20043;-63
2021/10/01 06:23:18;;;;;;;4.00;0.88;;;;;;;19.58;56.40;100218.41;5011913;28;20091;-61
2021/10/01 06:25:45;;;;;;;4.20;1.02;;;;;;;19.58;56.68;100213.09;5011807;28;20128;-61
2021/10/01 06:28:11;;;;;;;3.90;1.00;;;;;;;19.57;56.60;100215.97;5029210;28;20501;-60
2021/10/01 06:30:37;;;;;;;2.33;0.80;;;;;;;19.57;56.50;100218.63;5010898;28;20037;-61
2021/10/01 06:33:03;;;;;;;3.03;0.73;;;;;;;19.56;56.45;100217.78;4991521;28;20047;-61
2021/10/01 06:35:28;;;;;;;4.07;1.00;;;;;;;19.57;56.63;100218.63;4991558;28;20033;-61
2021/10/01 06:37:54;;;;;;;4.03;0.90;;;;;;;19.56;56.29;100214.28;5009722;28;20045;-61
2021/10/01 06:40:19;;;;;;;4.63;0.82;;;;;;;19.57;56.17;100227.41;5009964;28;20034;-62
2021/10/01 06:42:48;;;;;;;6.55;1.45;;;;;;;19.57;56.30;100229.25;5008999;28;20031;-62
2021/10/01 06:45:28;;;;;;;4.70;1.30;;;;;;;19.57;56.45;100230.06;5002367;28;20025;-64
2021/10/01 08:19:47;;;;;;;6.32;1.08;;;;;;;19.04;51.47;100319.72;5012189;28;20084;-62
2021/10/01 08:22:13;;;;;;;7.07;1.23;;;;;;;19.05;51.37;100318.72;5011938;28;20042;-62
2021/10/01 08:24:39;;;;;;;6.88;1.52;;;;;;;19.05;51.24;100326.69;5012182;28;20402;-62
2021/10/01 08:27:06;;;;;;;5.28;1.50;;;;;;;19.04;50.87;100344.47;5011536;28;20034;-62
2021/10/01 08:29:33;;;;;;;7.63;1.48;;;;;;;19.01;50.28;100318.31;5011392;28;20398;-65
2021/10/01 08:32:00;;;;;;;8.20;1.23;;;;;;;18.97;50.53;100334.88;5012004;28;20038;-61
2021/10/01 08:34:28;;;;;;;4.65;1.48;;;;;;;18.94;50.30;100336.09;5012147;28;20499;-61
2021/10/01 08:36:54;;;;;;;6.53;1.20;;;;;;;18.94;50.00;100344.06;5010831;28;20534;-62
2021/10/01 08:39:21;;;;;;;8.82;1.45;;;;;;;18.93;49.68;100333.63;5012397;28;20088;-61
2021/10/01 08:41:47;;;;;;;7.93;1.45;;;;;;;18.95;49.45;100359.00;5011043;28;20557;-62
2021/10/01 08:44:13;;;;;;;4.28;1.20;;;;;;;18.93;49.49;100352.22;4994053;28;20039;-61
2021/10/01 08:46:39;;;;;;;6.72;1.52;;;;;;;18.91;49.24;100346.31;5011492;28;20706;-61
2021/10/01 08:49:09;;;;;;;7.63;1.40;;;;;;;18.89;49.39;100345.69;5011445;28;20472;-62
2021/10/01 08:51:35;;;;;;;4.85;0.90;;;;;;;18.89;49.12;100349.16;5011331;28;20037;-61
2021/10/01 08:54:01;;;;;;;8.63;1.42;;;;;;;18.86;49.09;100354.88;5011760;28;20065;-62
2021/10/01 08:56:27;;;;;;;6.88;1.65;;;;;;;18.85;49.26;100353.25;5011298;28;20570;-62
2021/10/01 08:58:53;;;;;;;6.13;1.33;;;;;;;18.84;48.76;100349.78;5010400;28;20057;-62
2021/10/01 09:01:19;;;;;;;8.70;1.27;;;;;;;18.86;49.00;100368.19;5011734;28;20065;-61
2021/10/01 09:03:45;;;;;;;9.00;1.95;;;;;;;18.84;48.79;100351.63;5011228;28;20076;-62
2021/10/01 09:06:12;;;;;;;5.50;1.40;;;;;;;18.85;48.58;100356.72;5011703;28;20541;-61
2021/10/01 09:08:53;;;;;;;11.45;1.90;;;;;;;18.80;48.48;100372.47;5010889;28;20034;-62
2021/10/01 09:11:26;;;;;;;7.38;1.30;;;;;;;18.78;48.56;100371.03;5011556;28;20627;-62
2021/10/01 09:13:52;;;;;;;6.95;1.50;;;;;;;18.76;48.68;100359.78;5010133;28;20521;-61
2021/10/01 09:16:18;;;;;;;6.47;1.20;;;;;;;18.74;48.57;100369.78;4993732;28;20033;-62
2021/10/01 09:18:43;;;;;;;13.65;1.60;;;;;;;18.74;48.23;100375.09;5011390;28;20463;-62
2021/10/01 09:21:15;;;;;;;5.15;1.48;;;;;;;18.72;48.07;100364.69;5011063;28;20046;-62
2021/10/01 09:23:52;;;;;;;8.77;1.50;;;;;;;18.69;48.26;100374.91;5010796;28;20033;-61
2021/10/01 09:26:20;;;;;;;5.30;1.30;;;;;;;18.70;48.10;100368.56;5011377;28;20374;-61
2021/10/01 09:28:54;;;;;;;9.00;1.67;;;;;;;18.68;48.33;100370.59;5009996;28;20739;-62
2021/10/01 09:31:34;;;;;;;12.02;1.80;;;;;;;18.65;47.73;100392.25;5011105;28;20088;-61
2021/10/01 09:34:01;;;;;;;7.03;1.58;;;;;;;18.65;48.03;100381.63;5010784;28;20034;-63
2021/10/01 09:36:27;;;;;;;9.05;1.67;;;;;;;18.61;47.85;100388.31;5011134;28;20034;-62
2021/10/01 09:38:54;;;;;;;8.25;1.52;;;;;;;18.61;47.63;100383.81;5010844;28;20514;-62
2021/10/01 09:41:26;;;;;;;6.30;1.40;;;;;;;18.62;47.34;100385.50;5010862;28;20148;-62
2021/10/01 09:44:19;;;;;;;6.88;1.55;;;;;;;18.56;47.75;100395.06;5009787;28;20045;-61
2021/10/01 09:46:50;;;;;;;5.32;1.40;;;;;;;18.62;47.29;100389.94;5007890;28;20072;-61
2021/10/01 09:49:18;;;;;;;5.32;1.60;;;;;;;18.63;47.11;100388.97;5010925;28;20041;-61
2021/10/01 09:51:52;;;;;;;6.75;1.23;;;;;;;18.58;47.02;100394.84;5010380;28;20029;-62
2021/10/01 09:54:21;;;;;;;8.23;1.58;;;;;;;18.61;47.04;100393.63;5010863;28;20479;-62
2021/10/01 09:56:47;;;;;;;8.68;1.40;;;;;;;18.61;47.12;100399.75;5009462;28;20070;-61
2021/10/01 09:59:15;;;;;;;6.40;1.25;;;;;;;18.61;46.86;100391.78;5010496;28;20888;-61
2021/10/01 10:02:14;;;;;;;7.80;1.50;;;;;;;18.58;46.84;100399.34;5010681;28;20029;-61
2021/10/01 10:04:45;;;;;;;8.98;1.55;;;;;;;18.62;46.59;100388.16;5010198;28;20037;-61
2021/10/01 10:07:22;;;;;;;4.15;1.00;;;;;;;18.61;46.65;100394.44;4992811;28;20040;-61
2021/10/01 10:09:52;;;;;;;6.65;1.80;;;;;;;18.58;46.56;100386.06;5010351;28;20117;-62
2021/10/01 10:12:21;;;;;;;4.53;1.00;;;;;;;18.61;46.65;100391.78;5009669;28;20450;-61
2021/10/01 10:14:50;;;;;;;7.10;1.52;;;;;;;18.61;46.39;100385.66;5009555;28;20034;-61
2021/10/01 10:17:25;;;;;;;5.15;1.23;;;;;;;18.60;46.40;100384.84;5010265;28;20025;-61
2021/10/01 10:19:53;;;;;;;4.20;1.10;;;;;;;18.60;45.99;100376.06;5010283;28;20038;-61
2021/10/01 10:22:19;;;;;;;5.75;1.05;;;;;;;18.58;45.81;100392.19;5010262;28;20041;-62
2021/10/01 10:24:46;;;;;;;8.27;1.50;;;;;;;18.58;45.89;100386.88;5009675;28;20037;-61
2021/10/01 10:27:11;;;;;;;3.35;0.95;;;;;;;18.56;45.49;100392.41;5009679;28;20153;-61
2021/10/01 10:29:39;;;;;;;8.07;1.38;;;;;;;18.54;45.58;100397.09;5009809;28;20029;-61
2021/10/01 10:32:10;;;;;;;7.97;1.45;;;;;;;18.53;45.66;100392.81;5009616;28;20041;-62
2021/10/01 10:34:51;;;;;;;7.25;1.33;;;;;;;18.49;45.19;100391.56;5010075;28;20026;-62
2021/10/01 10:37:17;;;;;;;7.55;1.40;;;;;;;18.48;45.47;100389.13;5010083;28;20037;-62
2021/10/01 10:39:44;;;;;;;8.52;1.25;;;;;;;18.50;45.44;100393.22;5009930;28;20415;-63
2021/10/01 10:42:15;;;;;;;5.78;1.23;;;;;;;18.50;44.98;100385.25;5009399;28;20038;-64
2021/10/01 10:44:46;;;;;;;6.82;1.10;;;;;;;18.48;45.25;100397.91;5009274;28;20030;-63
2021/10/01 10:47:44;;;;;;;3.97;1.30;;;;;;;18.41;44.75;100393.56;4992311;28;20030;-64
2021/10/01 10:50:21;;;;;;;5.20;1.40;;;;;;;18.43;44.88;100418.91;5009950;28;20029;-64
2021/10/01 10:53:05;;;;;;;10.80;1.42;;;;;;;18.42;45.17;100417.28;5009347;28;20463;-64
2021/10/01 10:55:32;;;;;;;8.93;1.48;;;;;;;18.48;44.74;100416.50;5010159;28;20030;-64
2021/10/01 10:57:58;;;;;;;6.18;1.30;;;;;;;18.49;44.70;100404.84;5009052;28;20116;-65
2021/10/01 11:00:39;;;;;;;8.73;1.48;;;;;;;18.44;44.53;100407.25;5009040;28;20045;-64
2021/10/01 11:03:22;;;;;;;5.15;1.17;;;;;;;18.45;44.71;100410.75;4992575;28;20506;-64
2021/10/01 11:06:10;;;;;;;6.15;1.50;;;;;;;18.47;44.65;100414.03;5009291;28;20038;-65
2021/10/01 11:08:49;;;;;;;6.95;1.55;;;;;;;18.49;44.48;100394.22;5009539;28;20033;-62
2021/10/01 11:11:32;;;;;;;5.75;1.20;;;;;;;18.47;44.56;100409.56;5009620;28;20021;-64
2021/10/01 11:14:15;;;;;;;6.40;1.42;;;;;;;18.41;44.04;100412.97;5008522;28;20091;-64
2021/10/01 11:16:42;;;;;;;8.48;1.60;;;;;;;18.47;44.38;100422.84;4991979;28;20053;-64
2021/10/01 11:19:10;;;;;;;7.25;1.50;;;;;;;18.50;44.43;100416.28;5009610;28;20045;-64
2021/10/01 11:21:43;;;;;;;8.77;1.88;;;;;;;18.49;44.21;100422.63;5009440;28;20042;-64
2021/10/01 11:24:17;;;;;;;6.63;1.40;;;;;;;18.49;44.27;100427.94;5009249;28;20113;-64
2021/10/01 11:26:51;;;;;;;6.20;1.83;;;;;;;18.48;44.18;100419.16;5008768;28;20037;-66
2021/10/01 11:29:33;;;;;;;5.07;1.30;;;;;;;18.46;44.47;100453.06;5008907;28;20113;-64
2021/10/01 11:32:16;;;;;;;4.72;1.60;;;;;;;18.45;44.31;100446.09;5009105;28;20780;-65
2021/10/01 11:34:43;;;;;;;7.20;2.33;;;;;;;18.48;44.18;100442.25;5009539;28;20030;-64
2021/10/01 11:37:43;;;;;;;8.02;2.47;;;;;;;18.46;44.03;100447.75;4991138;28;20502;-65
2021/10/01 11:40:21;;;;;;;7.03;1.60;;;;;;;18.39;43.64;100449.53;5009344;28;20044;-65
2021/10/01 11:42:50;;;;;;;6.47;1.70;;;;;;;18.45;43.82;100447.94;5008729;28;20045;-65
2021/10/01 11:45:25;;;;;;;3.15;1.20;;;;;;;18.45;43.74;100447.94;5008966;28;20033;-65
2021/10/01 11:48:02;;;;;;;3.40;1.00;;;;;;;18.43;43.47;100449.97;5008993;28;20515;-65
2021/10/01 11:50:35;;;;;;;6.82;1.23;;;;;;;18.43;43.54;100453.44;5009150;28;20127;-65
2021/10/01 11:53:02;;;;;;;7.57;1.35;;;;;;;18.44;43.53;100457.72;5008805;28;20051;-64
2021/10/01 11:55:35;;;;;;;6.45;1.30;;;;;;;18.44;43.26;100467.53;5008880;28;20056;-65
2021/10/01 11:58:02;;;;;;;6.93;1.80;;;;;;;18.46;43.48;100476.97;5008247;28;20168;-65
2021/10/01 12:00:28;;;;;;;6.68;1.48;;;;;;;18.43;43.47;100474.69;5008685;28;20034;-64
2021/10/01 12:02:54;;;;;;;6.40;1.48;;;;;;;18.42;43.58;100477.53;5008785;28;20070;-64
2021/10/01 12:05:28;;;;;;;6.10;1.58;;;;;;;18.44;43.62;100467.53;5009077;28;20045;-63
2021/10/01 12:07:59;;;;;;;7.07;1.52;;;;;;;18.45;43.43;100463.84;5008729;28;20036;-63
2021/10/01 12:10:26;;;;;;;5.43;1.40;;;;;;;18.49;43.28;100457.97;5008973;28;20037;-64
2021/10/01 12:13:22;;;;;;;6.32;1.45;;;;;;;18.47;43.02;100467.97;4994201;28;20533;-62
2021/10/01 12:15:54;;;;;;;4.53;1.50;;;;;;;18.52;43.24;100478.00;5012426;28;20065;-64
2021/10/01 12:18:40;;;;;;;7.28;1.30;;;;;;;18.48;43.22;100471.47;5012684;28;20073;-63
2021/10/01 12:21:19;;;;;;;4.10;1.40;;;;;;;18.50;43.36;100467.59;5012388;28;20033;-63
2021/10/01 12:23:48;;;;;;;9.07;1.75;;;;;;;18.49;43.31;100467.78;5012746;28;20041;-63
2021/10/01 12:26:26;;;;;;;5.03;1.23;;;;;;;18.45;43.39;100477.97;5012343;28;20034;-63
2021/10/01 12:29:02;;;;;;;6.00;1.40;;;;;;;18.43;43.19;100474.69;5011388;28;20471;-62
2021/10/01 12:31:31;;;;;;;5.57;1.30;;;;;;;18.45;43.49;100462.03;5012324;28;20030;-63
2021/10/01 12:34:01;;;;;;;2.88;1.05;;;;;;;18.42;43.23;100475.69;5012083;28;20037;-61
2021/10/01 12:36:28;;;;;;;5.47;1.33;;;;;;;18.45;43.50;100469.16;5012273;28;20039;-61
2021/10/01 12:38:59;;;;;;;5.55;1.15;;;;;;;18.44;43.27;100472.84;5017085;28;20041;-62
2021/10/01 12:41:26;;;;;;;3.22;0.90;;;;;;;18.41;43.35;100463.44;5029127;28;20036;-61
2021/10/01 12:43:55;;;;;;;6.15;1.38;;;;;;;18.47;43.27;100475.94;5030344;28;20095;-60
2021/10/01 12:46:43;;;;;;;6.47;1.70;;;;;;;18.40;42.89;100471.59;5016068;28;20041;-60
2021/10/01 12:49:18;;;;;;;4.63;1.30;;;;;;;18.46;42.84;100466.34;5007884;28;20091;-61
2021/10/01 12:51:58;;;;;;;6.07;1.20;;;;;;;18.47;43.15;100473.28;5015157;28;20046;-62
2021/10/01 12:54:38;;;;;;;5.38;1.20;;;;;;;18.45;42.96;100472.66;5015356;28;20042;-64
2021/10/01 12:57:15;;;;;;;6.93;1.42;;;;;;;18.50;43.01;100474.72;5020056;28;20176;-62
2021/10/01 12:59:45;;;;;;;4.90;1.40;;;;;;;18.50;43.31;100480.88;5018688;28;20072;-61
2021/10/01 13:02:24;;;;;;;6.25;1.60;;;;;;;18.50;43.15;100482.69;4997431;28;20819;-63
2021/10/01 13:04:54;;;;;;;6.10;1.50;;;;;;;18.56;43.25;100460.66;4998172;28;20399;-62
2021/10/01 13:07:29;;;;;;;8.63;2.00;;;;;;;18.56;42.75;100477.41;5027780;28;20041;-62
2021/10/01 13:09:56;;;;;;;5.68;1.55;;;;;;;18.59;42.87;100470.06;5031202;28;20377;-63
2021/10/01 13:12:32;;;;;;;6.07;1.77;;;;;;;18.58;42.79;100468.41;5021993;28;20076;-62
2021/10/01 13:15:12;;;;;;;5.05;1.63;;;;;;;18.56;42.93;100464.13;5026570;28;20029;-61